Home > Products > Valid Products > TAF

000
FTUS44 KMRX 160524
TAFTYS
TAF
KTYS 160524Z 1606/1706 03009KT P6SM SCT045
     FM161700 06008KT P6SM SKC
     FM170000 VRB04KT P6SM SKC=



000
FTUS44 KMRX 160524
TAFTRI
TAF
KTRI 160524Z 1606/1706 36009KT P6SM BKN045
     FM160800 VRB04KT P6SM SCT045
     FM161200 VRB05KT P6SM SKC=



000
FTUS44 KMRX 160524
TAFCHA
TAF
KCHA 160524Z 1606/1706 36007KT P6SM SKC
     FM161700 13007KT P6SM SKC
     FM170000 VRB04KT P6SM SKC=



000
FTUS44 KMRX 152326
TAFCHA
TAF
KCHA 152326Z 1600/1624 34012KT P6SM BKN050
     FM160300 01005KT P6SM SKC
     FM161400 06006KT P6SM SKC
     FM161800 14007KT P6SM SKC=



000
FTUS44 KMRX 152326
TAFTYS
TAF
KTYS 152326Z 1600/1624 36009KT P6SM SCT040 OVC050
     FM160400 03004KT P6SM SKC
     FM160600 06007KT P6SM SKC=



000
FTUS44 KMRX 152326
TAFTRI
TAF
KTRI 152326Z 1600/1624 34009KT P6SM BKN035
     FM160600 VRB03KT P6SM SCT035
     FM161200 VRB05KT P6SM SKC=



000
FTUS44 KMRX 152220 AAB
TAFTRI
TAF AMD
KTRI 152220Z 1522/1618 33008KT P6SM BKN035
     FM160600 VRB03KT P6SM FEW025=



000
FTUS44 KMRX 151940 AAA
TAFTRI
TAF AMD
KTRI 151940Z 1520/1618 31012G18KT P6SM BKN025 OVC040
      TEMPO 1520/1522 SCT025 BKN040
     FM152300 30011KT P6SM SCT015 BKN035
     FM160100 33007KT P6SM BKN035
     FM160600 VRB02KT P6SM FEW025=



000
FTUS44 KMRX 151738
TAFTRI
TAF
KTRI 151738Z 1518/1618 35014G20KT 4SM -RASN BR SCT010 OVC020
      TEMPO 1518/1521 2SM -SNRA BR BKN010 OVC015
     FM152100 30012G22KT P6SM SCT015 BKN030
     FM160100 33007KT P6SM BKN035
     FM160600 VRB02KT P6SM FEW025=



000
FTUS44 KMRX 151738
TAFTYS
TAF
KTYS 151738Z 1518/1618 01010G20KT P6SM VCSH BKN025 OVC035
     FM151900 36012G22KT P6SM BKN035
     FM160100 01008KT P6SM SCT030
     FM160600 04004KT P6SM SKC
     FM161500 05008KT P6SM SKC=



000
FTUS44 KMRX 151738
TAFCHA
TAF
KCHA 151738Z 1518/1618 34015G25KT P6SM VCSH BKN025 OVC035
     FM151900 34017G26KT P6SM BKN040
     FM160100 35010KT P6SM FEW030
     FM160500 01005KT P6SM SKC
     FM161300 06006KT P6SM SKC=



000
FTUS44 KMRX 151522 AAB
TAFTRI
TAF AMD
KTRI 151522Z 1515/1612 36012G18KT 4SM -SNRA BR SCT008 OVC020
      TEMPO 1515/1518 2SM -SNRA BR OVC015
     FM151800 33012G20KT P6SM -SN SCT010 OVC015
     FM152100 29012G20KT P6SM OVC025
     FM160100 29005KT P6SM SKC=



000
FTUS44 KMRX 151318 AAA
TAFTRI
TAF AMD
KTRI 151318Z 1513/1612 28010G17KT 4SM -RA BR BKN015 OVC025
      TEMPO 1513/1516 2SM -RA BR OVC010
     FM151700 29012G20KT P6SM BKN035
     FM152100 28012G20KT P6SM SCT050
     FM160100 29005KT P6SM SKC=



000
FTUS44 KMRX 151315 AAA
TAFCHA
TAF AMD
KCHA 151315Z 1513/1612 34015G26KT P6SM VCSH BKN025
     FM151600 34015G25KT P6SM BKN030
     FM151800 33017G28KT P6SM SCT035
     FM160100 36007KT P6SM SKC=



000
FTUS44 KMRX 151312 AAA
TAFTYS
TAF AMD
KTYS 151312Z 1513/1612 34012G20KT 5SM -RA BR SCT020 OVC035
      TEMPO 1513/1516 2SM -RA BR SCT015 OVC025
     FM151600 32017G28KT P6SM VCSH BKN015
     FM152000 31013G22KT P6SM SCT050
     FM160100 32008KT P6SM SKC=



000
FTUS44 KMRX 151125
TAFTYS
TAF
KTYS 151125Z 1512/1612 31012G20KT 2SM -RA BR OVC005
      TEMPO 1512/1514 5SM BR SCT005 BKN015
     FM151400 31017G28KT P6SM VCSH BKN015
     FM152000 31013G22KT P6SM SCT050
     FM160100 32008KT P6SM SKC=



000
FTUS44 KMRX 151125
TAFCHA
TAF
KCHA 151125Z 1512/1612 34010G17KT 2SM -RA BR OVC015
      TEMPO 1512/1514 SCT015 OVC025
     FM151400 33018G30KT P6SM VCSH BKN025
     FM151800 34015G25KT P6SM SCT050
     FM160100 36007KT P6SM SKC=



000
FTUS44 KMRX 151125
TAFTRI
TAF
KTRI 151125Z 1512/1612 28010G17KT P6SM VCSH BKN020
     FM152100 28012G20KT P6SM SCT050
     FM160100 29005KT P6SM SKC=



000
FTUS44 KMRX 151041 AAA
TAFTYS
TAF AMD
KTYS 151041Z 1511/1606 30014G23KT 3SM -RA BR BKN007 OVC015
     FM151200 31015G25KT 5SM BR BKN010
     FM151500 31017G28KT P6SM BKN020
     FM152000 31013G22KT P6SM SCT050
     FM160100 32010KT P6SM SKC=



000
FTUS44 KMRX 150553 CCA
TAFTRI
TAF COR
KTRI 150553Z 1506/1606 21010G20KT P6SM VCSH OVC070
     FM150900 28013G22KT P6SM BKN015
     FM152100 28012G20KT P6SM SCT050
     FM160100 29006KT P6SM SKC=



000
FTUS44 KMRX 150549
TAFTYS
TAF
KTYS 150549Z 1506/1606 23010KT P6SM VCSH SCT040 OVC100
     FM150800 31015G25KT P6SM BKN015
     FM152000 31013G22KT P6SM SCT050
     FM160100 32010KT P6SM SKC=



000
FTUS44 KMRX 150549
TAFTRI
TAF
KTRI 150549Z 1506/1606 21010G20KT P6SM VCSH OVC070
     FM150900 28013G22KT P6SM BKN025
     FM152100 28012G20KT P6SM SCT050
     FM160100 29006KT P6SM SKC=



000
FTUS44 KMRX 150549
TAFCHA
TAF
KCHA 150549Z 1506/1606 23006KT P6SM VCSH OVC050
     FM150700 34012G20KT P6SM OVC020
     FM151400 33018G30KT P6SM BKN025
     FM151800 34015G25KT P6SM SCT050
     FM160100 36007KT P6SM SKC=



000
FTUS44 KMRX 150343 AAA
TAFCHA
TAF AMD
KCHA 150343Z 1504/1524 20007KT P6SM -SHRA BKN035 OVC080
     FM150600 34016G22KT 4SM -SHRA BR VCSH OVC015
     FM151300 34018G28KT P6SM BKN025
     FM151800 33016G23KT P6SM BKN025
     FM152100 34015G25KT P6SM SCT250=



000
FTUS44 KMRX 150255 AAA
TAFTYS
TAF AMD
KTYS 150255Z 1503/1524 23010KT P6SM SCT040 OVC100
     FM150700 24013G23KT 5SM -SHRA BR OVC035
     FM151200 26018KT 4SM -SHRA BR OVC020
     FM151500 29015KT P6SM VCSH OVC020
     FM151800 30014KT P6SM OVC015
     FM152300 32015G22KT P6SM SCT250=



000
FTUS44 KMRX 142326
TAFTRI
TAF
KTRI 142326Z 1500/1524 21004KT P6SM SCT050 BKN100
     FM150200 20005KT P6SM OVC050
     FM150500 21010G20KT 4SM -SHRA BR OVC030
     FM151000 25008KT 3SM -SHRA BR OVC020
     FM151600 28011KT 6SM -SHRA BR OVC020
     FM151800 29011G18KT P6SM OVC025
     FM152100 30017G24KT P6SM OVC050=



000
FTUS44 KMRX 142326
TAFTYS
TAF
KTYS 142326Z 1500/1524 22009KT P6SM BKN045 OVC090
     FM150300 23012G20KT 4SM -SHRA BR SCT025 OVC040
     FM150700 24013G23KT 5SM -SHRA BR OVC025
     FM151200 26018KT 4SM -SHRA BR OVC020
     FM151500 29015KT P6SM VCSH OVC020
     FM151800 30014KT P6SM OVC015
     FM152300 32015G22KT P6SM SCT250=



000
FTUS44 KMRX 142326
TAFCHA
TAF
KCHA 142326Z 1500/1524 19007KT P6SM SCT035 OVC120
     FM150400 20007KT 4SM -SHRA BR OVC040
     FM150600 34016G22KT 6SM -SHRA BR VCSH OVC010
     FM151300 34018G28KT P6SM BKN025
     FM151800 33016G23KT P6SM BKN025
     FM152100 34015G25KT P6SM SCT250=



000
FTUS44 KMRX 142206 AAA
TAFCHA
TAF AMD
KCHA 142206Z 1422/1518 17007KT P6SM SCT035 BKN140
     FM150100 VRB05KT 3SM -SHRA BR OVC040
     FM150400 30014G22KT 4SM -SHRA BR BKN015
     FM150600 35017G27KT 6SM BR VCSH OVC010
     FM151300 34015KT P6SM BKN025=



000
FTUS44 KMRX 142110 AAA
TAFTRI
TAF AMD
KTRI 142110Z 1421/1518 19006KT P6SM FEW035 BKN060 OVC090
     FM150000 VRB04KT P6SM SCT050 BKN100
     FM150500 21010G20KT 4SM -SHRA BR OVC030
     FM151000 25008KT 3SM -SHRA BR OVC025
     FM151600 28015KT 6SM -RA BR OVC030=



000
FTUS44 KMRX 141720
TAFTRI
TAF
KTRI 141720Z 1418/1518 19012G18KT P6SM VCSH SCT045 OVC100
     FM142100 19008G16KT P6SM FEW050 SCT100 BKN150
     FM150000 VRB04KT P6SM SCT050 BKN100
     FM150500 21010G20KT 4SM -SHRA BR OVC030
     FM151000 25008KT 3SM -SHRA BR OVC025
     FM151600 28015KT 6SM -RA BR OVC030=



000
FTUS44 KMRX 141720
TAFCHA
TAF
KCHA 141720Z 1418/1518 19009G18KT P6SM VCSH SCT035 BKN090
      TEMPO 1418/1420 BKN035
     FM142300 17005KT P6SM VCTS BKN035CB OVC080
     FM150100 VRB05KT 3SM -SHRA BR VCTS OVC020CB
     FM150400 30014G22KT 4SM -SHRA BR BKN015
     FM150600 35017G27KT 6SM BR VCSH OVC010
     FM151300 34015KT P6SM BKN025=



000
FTUS44 KMRX 141720
TAFTYS
TAF
KTYS 141720Z 1418/1518 22015G25KT P6SM SCT045 BKN090
     FM150300 23012G20KT 4SM -SHRA BR VCTS SCT025 OVC040CB
     FM150700 24013G20KT 6SM -SHRA BR OVC030
     FM151200 32018KT 4SM -SHRA BR OVC020
     FM151500 34017KT P6SM VCSH BKN030=



000
FTUS44 KMRX 141506 AAA
TAFTRI
TAF AMD
KTRI 141506Z 1415/1512 19011KT P6SM SCT080 BKN150 OVC250
     FM141800 21009G17KT P6SM VCSH SCT050 BKN100
     FM142300 20008G16KT P6SM VCSH SCT025 OVC050
     FM150400 18005KT 5SM -SHRA BR OVC050
     FM150700 VRB04KT 3SM -SHRA BR OVC020
     FM151000 25007KT 3SM -SHRA BR OVC010=



000
FTUS44 KMRX 141458 AAA
TAFCHA
TAF AMD
KCHA 141458Z 1415/1512 17005KT 5SM -SHRA BR SCT035 BKN050
     FM141600 18005G15KT P6SM SCT040 BKN100
     FM142300 17005KT P6SM VCTS BKN035CB OVC080
     FM150100 VRB05KT 4SM -SHRA BR VCTS OVC020CB
     FM150500 31014G22KT 4SM -SHRA BR OVC010
     FM150900 35017G27KT 5SM -SHRA BR OVC015=



000
FTUS44 KMRX 141128
TAFTRI
TAF
KTRI 141128Z 1412/1512 16006KT P6SM BKN200
     FM141400 20008KT 5SM -SHRA BR SCT040 OVC120
     FM141800 21009G17KT P6SM VCSH BKN040 BKN100
     FM142300 20008G16KT P6SM VCSH SCT025 OVC050
     FM150400 18005KT 5SM -SHRA BR OVC050
     FM150700 VRB04KT 3SM -SHRA BR OVC020
     FM151000 25007KT 3SM -SHRA BR OVC010=



000
FTUS44 KMRX 141128
TAFTYS
TAF
KTYS 141128Z 1412/1512 20012G18KT P6SM VCSH SCT025 BKN050 OVC120
     FM141300 22014G19KT 5SM -SHRA BR SCT035 OVC050
     FM141700 22017G25KT P6SM VCSH BKN045 BKN200
     FM150000 21007KT P6SM VCSH BKN045 OVC150
     FM150300 24012G20KT 4SM -SHRA BR VCTS SCT025 OVC040CB
     FM150600 28013G20KT 4SM -SHRA BR OVC030
     FM150800 32016G26KT 4SM -SHRA BR OVC015=



000
FTUS44 KMRX 141128
TAFCHA
TAF
KCHA 141128Z 1412/1512 21008G14KT 5SM -SHRA BR VCTS BKN050CB OVC120
     FM141600 19009G18KT P6SM VCSH BKN025 OVC100
     FM142300 17005KT P6SM VCTS BKN035CB OVC080
     FM150100 VRB05KT 4SM -SHRA BR VCTS OVC020CB
     FM150500 31014G22KT 4SM -SHRA BR OVC010
     FM150900 35017G27KT 5SM -SHRA BR OVC015=



000
FTUS44 KMRX 140843 AAA
TAFCHA
TAF AMD
KCHA 140843Z 1409/1506 16009G16KT P6SM -RA SCT050 BKN150
     FM141000 18008G14KT 5SM -SHRA BR VCTS BKN050CB OVC120
     FM141500 19009G18KT P6SM VCSH BKN040 OVC100
     FM142300 17005KT P6SM VCTS BKN035CB OVC080
     FM150200 VRB05KT 4SM -SHRA BR VCTS OVC015CB=



000
FTUS44 KMRX 140535
TAFCHA
TAF
KCHA 140535Z 1406/1506 18008G16KT P6SM SCT050 BKN150
     FM141000 18008G14KT P6SM VCSH BKN050 OVC120
     FM141200 18010G17KT 5SM -SHRA BR VCTS SCT020CB OVC040
     FM141800 17009G20KT P6SM VCSH BKN035
     FM142300 17005KT 5SM -SHRA BR VCTS OVC020CB
     FM150200 VRB05KT 4SM -SHRA BR VCTS OVC010CB=



000
FTUS44 KMRX 140535
TAFTRI
TAF
KTRI 140535Z 1406/1506 16006KT P6SM BKN200
     FM141400 20008KT P6SM VCSH SCT040 OVC120
     FM141800 21013G21KT P6SM VCSH BKN040 BKN100
     FM142300 21008KT P6SM VCSH SCT025 OVC050
     FM150200 18005KT P6SM -RA OVC050=



000
FTUS44 KMRX 140535
TAFTYS
TAF
KTYS 140535Z 1406/1506 21012G18KT P6SM SCT070 BKN200
     FM141100 22012G18KT P6SM VCSH BKN050 OVC120
     FM141300 22014G20KT 5SM -SHRA BR SCT035 OVC050
     FM141800 23017G25KT P6SM VCSH BKN045 BKN200
     FM150000 22007KT P6SM -RA OVC025
     FM150200 21007KT 4SM -SHRA BR VCTS OVC025CB=



000
FTUS44 KMRX 140155 AAA
TAFTYS
TAF AMD
KTYS 140155Z 1402/1424 20010KT P6SM SCT070 BKN200
     FM141200 22012KT P6SM SCT040 BKN100
     FM141500 22014KT P6SM VCSH SCT035 OVC050
     FM141800 23017G25KT P6SM OVC050
     FM142300 22009KT P6SM -RA OVC025=



000
FTUS44 KMRX 132339
TAFCHA
TAF
KCHA 132339Z 1400/1424 18008KT P6SM SCT050 BKN200
     FM140900 18006KT P6SM VCSH OVC070
     FM141400 18010KT 5SM -SHRA BR SCT020 OVC040
     FM141800 17009G20KT P6SM OVC025
     FM142300 17005KT 6SM -RA OVC025=



000
FTUS44 KMRX 132339
TAFTYS
TAF
KTYS 132339Z 1400/1424 22010G21KT P6SM SCT070 BKN200
     FM141200 22012KT P6SM SCT040 BKN100
     FM141500 22014KT P6SM VCSH SCT035 OVC050
     FM141800 23017G25KT P6SM OVC050
     FM142300 22009KT P6SM -RA OVC025=



000
FTUS44 KMRX 132339
TAFTRI
TAF
KTRI 132339Z 1400/1424 21005KT P6SM BKN200
     FM141400 20008KT P6SM SCT040 BKN100
     FM141800 21013G21KT P6SM OVC050
     FM142300 21008KT P6SM SCT025 OVC050=



000
FTUS44 KMRX 131751
TAFTRI
TAF
KTRI 131751Z 1318/1418 22008G16KT P6SM FEW050 SCT250
     FM140000 18003KT P6SM BKN200
     FM141400 20010KT P6SM SCT040 BKN100=



000
FTUS44 KMRX 131751
TAFTYS
TAF
KTYS 131751Z 1318/1418 23017G26KT P6SM SCT050 SCT250
     FM140000 21009KT P6SM SCT050 BKN200
     FM141200 22012KT P6SM SCT040 BKN100
     FM141500 22014KT P6SM VCSH SCT035 OVC050=



000
FTUS44 KMRX 131751
TAFCHA
TAF
KCHA 131751Z 1318/1418 18015G25KT P6SM SCT050 SCT250
     FM140000 17006KT P6SM SCT050 BKN200
     FM140900 17005KT P6SM VCSH BKN045
     FM141400 18010KT 5SM -SHRA BR SCT020 OVC040=



000
FTUS44 KMRX 131739
TAFCHA
TAF
KCHA 131739Z 1318/1418 18014G23KT P6SM SCT150 BKN250
     FM140000 17006KT P6SM SCT060 OVC150
     FM140900 17005KT P6SM VCSH SCT040 OVC100
     FM141300 19012KT 5SM -SHRA BR BKN040=



000
FTUS44 KMRX 131739
TAFTRI
TAF
KTRI 131739Z 1318/1418 21009G16KT P6SM BKN250
     FM140000 VRB04KT P6SM OVC150
     FM141500 18008KT P6SM SCT040 BKN080=



000
FTUS44 KMRX 131739
TAFTYS
TAF
KTYS 131739Z 1318/1418 22014G24KT P6SM BKN250
     FM140000 22009KT P6SM SCT045 OVC150
     FM141400 21012KT P6SM VCSH BKN045=



000
FTUS44 KMRX 131720
TAFCHA
TAF
KCHA 131720Z 1318/1418 18014G23KT P6SM SCT050 SCT250
     FM140000 17006KT P6SM SCT050 BKN200
     FM140900 17005KT P6SM VCSH SCT040 OVC100
     FM141000 19010KT 5SM -SHRA BR BKN040
     FM141400 18012G20KT P6SM SCT045 SCT100=



000
FTUS44 KMRX 131720
TAFTYS
TAF
KTYS 131720Z 1318/1418 22014G24KT P6SM BKN250
     FM140000 22009KT P6SM SCT045 OVC150
     FM141400 21012KT P6SM VCSH BKN045=



000
FTUS44 KMRX 131720
TAFTRI
TAF
KTRI 131720Z 1318/1418 21009G16KT P6SM FEW060 SCT250
     FM140000 VRB02KT P6SM BKN200
     FM141400 20010KT P6SM SCT040 BKN080=



000
FTUS44 KMRX 131720
TAFTRI
TAF
KTRI 131720Z 1318/1418 21009G16KT P6SM BKN250
     FM140000 VRB04KT P6SM OVC150
     FM141500 18008KT P6SM SCT040 BKN080=



000
FTUS44 KMRX 131720
TAFTYS
TAF
KTYS 131720Z 1318/1418 22014G24KT P6SM SCT060 SCT250
     FM140000 18009KT P6SM FEW045 BKN200
     FM141100 18010KT P6SM VCSH BKN045
     FM141500 21014KT P6SM SCT040 SCT100=



000
FTUS44 KMRX 131720
TAFCHA
TAF
KCHA 131720Z 1318/1418 18014G23KT P6SM SCT150 BKN250
     FM140000 17006KT P6SM SCT060 OVC150
     FM140900 17005KT P6SM VCSH SCT040 OVC100
     FM141300 19012KT 5SM -SHRA BR BKN040=



000
FTUS44 KMRX 131129
TAFCHA
TAF
KCHA 131129Z 1312/1412 VRB03KT P6SM BKN250
     FM131400 18007KT P6SM BKN250
     FM131700 18014G23KT P6SM SCT150 BKN250
     FM140000 17006KT P6SM SCT060 OVC150
     FM140900 17005KT P6SM VCSH SCT040 OVC100=



000
FTUS44 KMRX 131129
TAFTRI
TAF
KTRI 131129Z 1312/1412 00000KT P6SM SCT100 BKN250
     FM131600 21009G16KT P6SM BKN250
     FM140000 VRB04KT P6SM OVC150=



000
FTUS44 KMRX 131129
TAFTYS
TAF
KTYS 131129Z 1312/1412 22005KT P6SM BKN250
     FM131500 22014G24KT P6SM BKN250
     FM140000 22009KT P6SM SCT045 OVC150=



    US Dept of Commerce
    National Oceanic and Atmospheric Administration
    National Weather Service
    1325 East West Highway
    Silver Spring, MD 20910
    Page Author: NWS Internet Services Team
Disclaimer
Information Quality
Credits
Glossary
Privacy Policy
Freedom of Information Act (FOIA)
About Us
Career Opportunities